createdAt,value
2018-02-27T00:00:30.421Z,99.99
2018-02-27T00:01:30.398Z,99.99
2018-02-27T00:02:30.372Z,99.99
2018-02-27T00:03:30.089Z,99.99
2018-02-27T00:04:30.319Z,99.99
2018-02-27T00:05:30.035Z,99.99
2018-02-27T00:06:30.262Z,99.99
2018-02-27T00:07:30.244Z,99.99
2018-02-27T00:08:30.218Z,99.99
2018-02-27T00:09:30.189Z,99.99
2018-02-27T00:10:30.166Z,99.99
2018-02-27T00:11:30.133Z,99.99
2018-02-27T00:12:29.852Z,99.99
2018-02-27T00:13:30.081Z,99.99
2018-02-27T00:14:30.054Z,99.99
2018-02-27T00:15:29.773Z,99.99
2018-02-27T00:16:30.004Z,99.99
2018-02-27T00:17:29.977Z,99.99
2018-02-27T00:18:29.955Z,99.99
2018-02-27T00:19:29.666Z,99.99
2018-02-27T00:20:29.899Z,99.99
2018-02-27T00:21:29.872Z,99.99
2018-02-27T00:22:29.849Z,99.99
2018-02-27T00:23:29.823Z,99.99
2018-02-27T00:24:29.791Z,99.99
2018-02-27T00:25:29.771Z,99.99
2018-02-27T00:26:29.485Z,99.99
2018-02-27T00:27:29.758Z,99.99
2018-02-27T00:28:29.686Z,99.99
2018-02-27T00:29:29.666Z,99.99
2018-02-27T00:30:29.635Z,99.99
2018-02-27T00:31:29.607Z,99.99
2018-02-27T00:32:29.327Z,99.99
2018-02-27T00:33:29.557Z,99.99
2018-02-27T00:34:29.536Z,99.99
2018-02-27T00:35:29.503Z,99.99
2018-02-27T00:36:29.222Z,99.99
2018-02-27T00:37:29.451Z,99.99
2018-02-27T00:38:29.426Z,99.99
2018-02-27T00:39:29.145Z,99.99
2018-02-27T00:40:29.373Z,99.99
2018-02-27T00:41:29.348Z,99.99
2018-02-27T00:42:29.325Z,99.99
2018-02-27T00:43:29.036Z,99.99
2018-02-27T00:44:29.267Z,99.99
2018-02-27T00:45:29.244Z,99.99
2018-02-27T00:46:29.215Z,99.99
2018-02-27T00:47:28.963Z,99.99
2018-02-27T00:48:29.171Z,99.99
2018-02-27T00:49:28.880Z,99.99
2018-02-27T00:50:29.108Z,99.99
2018-02-27T00:51:29.082Z,99.99
2018-02-27T00:52:29.055Z,99.99
2018-02-27T00:53:28.775Z,99.99
2018-02-27T00:54:29.004Z,99.99
2018-02-27T00:55:28.976Z,99.99
2018-02-27T00:56:28.952Z,99.99
2018-02-27T00:57:28.927Z,99.99
2018-02-27T00:58:28.901Z,99.99
2018-02-27T00:59:28.617Z,99.99
2018-02-27T01:00:28.846Z,99.99
2018-02-27T01:01:28.822Z,99.99
2018-02-27T01:02:28.795Z,99.99
2018-02-27T01:03:28.772Z,99.99
2018-02-27T01:04:28.488Z,99.99
2018-02-27T01:05:28.459Z,99.99
2018-02-27T01:06:28.689Z,99.99
2018-02-27T01:07:28.665Z,99.99
2018-02-27T01:08:28.637Z,99.99
2018-02-27T01:09:28.614Z,99.99
2018-02-27T01:10:28.327Z,99.99
2018-02-27T01:11:28.560Z,99.99
2018-02-27T01:12:28.271Z,99.99
2018-02-27T01:13:28.568Z,99.99
2018-02-27T01:14:28.219Z,99.99
2018-02-27T01:15:28.454Z,99.99
2018-02-27T01:16:28.169Z,99.99
2018-02-27T01:17:28.398Z,99.99
2018-02-27T01:18:28.113Z,99.99
2018-02-27T01:19:28.346Z,99.99
2018-02-27T01:20:28.328Z,99.99
2018-02-27T01:21:28.294Z,99.99
2018-02-27T01:22:28.277Z,99.99
2018-02-27T01:23:28.243Z,99.99
2018-02-27T01:24:27.956Z,99.99
2018-02-27T01:25:28.184Z,99.99
2018-02-27T01:26:28.163Z,99.99
2018-02-27T01:27:27.877Z,99.99
2018-02-27T01:28:28.117Z,99.99
2018-02-27T01:29:27.822Z,99.99
2018-02-27T01:30:27.793Z,99.99
2018-02-27T01:31:28.028Z,99.99
2018-02-27T01:32:28.005Z,99.99
2018-02-27T01:33:27.975Z,99.99
2018-02-27T01:34:27.960Z,99.99
2018-02-27T01:35:27.923Z,99.99
2018-02-27T01:36:27.892Z,99.99
2018-02-27T01:37:27.867Z,99.99
2018-02-27T01:38:27.844Z,99.99
2018-02-27T01:39:27.814Z,99.99
2018-02-27T01:40:27.796Z,99.99
2018-02-27T01:41:27.762Z,99.99
2018-02-27T01:42:27.476Z,99.99
2018-02-27T01:43:27.708Z,99.99
2018-02-27T01:44:27.679Z,99.99
2018-02-27T01:45:27.661Z,99.99
2018-02-27T01:46:27.625Z,99.99
2018-02-27T01:47:27.611Z,99.99
2018-02-27T01:48:27.315Z,99.99
2018-02-27T01:49:27.290Z,99.99
2018-02-27T01:50:27.520Z,99.99
2018-02-27T01:51:27.494Z,99.99
2018-02-27T01:52:27.214Z,99.99
2018-02-27T01:53:27.440Z,99.99
2018-02-27T01:54:27.416Z,99.99
2018-02-27T01:55:27.389Z,99.99
2018-02-27T01:56:27.361Z,99.99
2018-02-27T01:57:27.330Z,99.99
2018-02-27T01:58:27.305Z,99.99
2018-02-27T01:59:27.286Z,99.99
2018-02-27T02:00:26.995Z,99.99
2018-02-27T02:01:27.225Z,99.99
2018-02-27T02:02:27.203Z,99.99
2018-02-27T02:03:26.916Z,99.99
2018-02-27T02:04:27.146Z,99.99
2018-02-27T02:05:27.127Z,99.99
2018-02-27T02:06:27.092Z,99.99
2018-02-27T02:07:27.069Z,99.99
2018-02-27T02:08:26.784Z,99.99
2018-02-27T02:09:26.755Z,99.99
2018-02-27T02:10:26.731Z,99.99
2018-02-27T02:11:26.966Z,99.99
2018-02-27T02:12:26.935Z,99.99
2018-02-27T02:13:26.908Z,99.99
2018-02-27T02:14:26.882Z,99.99
2018-02-27T02:15:26.859Z,99.99
2018-02-27T02:16:26.834Z,99.99
2018-02-27T02:17:26.547Z,99.99
2018-02-27T02:18:26.521Z,99.99
2018-02-27T02:19:26.492Z,99.99
2018-02-27T02:20:26.467Z,99.99
2018-02-27T02:21:26.701Z,99.99
2018-02-27T02:22:26.672Z,99.99
2018-02-27T02:23:26.390Z,99.99
2018-02-27T02:24:26.362Z,99.99
2018-02-27T02:25:26.599Z,99.99
2018-02-27T02:26:26.309Z,99.99
2018-02-27T02:27:26.547Z,99.99
2018-02-27T02:28:26.514Z,99.99
2018-02-27T02:29:26.490Z,99.99
2018-02-27T02:30:26.463Z,99.99
2018-02-27T02:31:26.497Z,99.99
2018-02-27T02:32:26.460Z,99.99
2018-02-27T02:33:26.388Z,99.99
2018-02-27T02:34:26.361Z,99.99
2018-02-27T02:35:26.074Z,99.99
2018-02-27T02:36:26.311Z,99.99
2018-02-27T02:37:26.282Z,99.99
2018-02-27T02:38:26.255Z,99.99
2018-02-27T02:39:26.230Z,99.99
2018-02-27T02:40:25.944Z,99.99
2018-02-27T02:41:26.173Z,99.99
2018-02-27T02:42:26.151Z,99.99
2018-02-27T02:43:26.122Z,99.99
2018-02-27T02:44:26.098Z,99.99
2018-02-27T02:45:26.068Z,99.99
2018-02-27T02:46:26.053Z,99.99
2018-02-27T02:47:25.761Z,99.99
2018-02-27T02:48:25.995Z,99.99
2018-02-27T02:49:25.704Z,99.99
2018-02-27T02:50:25.937Z,99.99
2018-02-27T02:51:25.909Z,99.99
2018-02-27T02:52:25.881Z,99.99
2018-02-27T02:53:25.856Z,99.99
2018-02-27T02:54:25.839Z,99.99
2018-02-27T02:55:25.803Z,99.99
2018-02-27T02:56:25.782Z,99.99
2018-02-27T02:57:25.756Z,99.99
2018-02-27T02:58:25.730Z,99.99
2018-02-27T02:59:25.441Z,99.99
2018-02-27T03:00:25.417Z,99.99
2018-02-27T03:01:25.654Z,99.99
2018-02-27T03:02:25.625Z,99.99
2018-02-27T03:03:25.594Z,99.99
2018-02-27T03:04:25.568Z,99.99
2018-02-27T03:05:25.287Z,99.99
2018-02-27T03:06:25.515Z,99.99
2018-02-27T03:07:25.488Z,99.99
2018-02-27T03:08:25.465Z,99.99
2018-02-27T03:09:25.189Z,99.99
2018-02-27T03:10:25.409Z,99.99
2018-02-27T03:11:25.385Z,99.99
2018-02-27T03:12:25.358Z,99.99
2018-02-27T03:13:25.334Z,99.99
2018-02-27T03:14:25.308Z,99.99
2018-02-27T03:15:25.278Z,99.99
2018-02-27T03:16:25.251Z,99.99
2018-02-27T03:17:25.230Z,99.99
2018-02-27T03:18:24.945Z,99.99
2018-02-27T03:19:25.176Z,99.99
2018-02-27T03:20:25.155Z,99.99
2018-02-27T03:21:25.131Z,99.99
2018-02-27T03:22:24.839Z,99.99
2018-02-27T03:23:25.075Z,99.99
2018-02-27T03:24:25.051Z,99.99
2018-02-27T03:25:25.026Z,99.99
2018-02-27T03:26:24.990Z,99.99
2018-02-27T03:27:24.966Z,99.99
2018-02-27T03:28:24.682Z,99.99
2018-02-27T03:29:24.656Z,99.99
2018-02-27T03:30:24.632Z,99.99
2018-02-27T03:31:24.862Z,99.99
2018-02-27T03:32:24.834Z,99.99
2018-02-27T03:33:24.549Z,99.99
2018-02-27T03:34:24.787Z,99.99
2018-02-27T03:35:24.755Z,99.99
2018-02-27T03:36:24.470Z,99.99
2018-02-27T03:37:24.699Z,99.99
2018-02-27T03:38:24.677Z,99.99
2018-02-27T03:39:24.653Z,99.99
2018-02-27T03:40:24.626Z,99.99
2018-02-27T03:41:24.596Z,99.99
2018-02-27T03:42:24.312Z,99.99
2018-02-27T03:43:24.287Z,99.99
2018-02-27T03:44:24.520Z,99.99
2018-02-27T03:45:24.496Z,99.99
2018-02-27T03:46:24.470Z,99.99
2018-02-27T03:47:24.184Z,99.99
2018-02-27T03:48:24.420Z,99.99
2018-02-27T03:49:24.131Z,99.99
2018-02-27T03:50:24.110Z,99.99
2018-02-27T03:51:24.342Z,99.99
2018-02-27T03:52:24.049Z,99.99
2018-02-27T03:53:24.289Z,99.99
2018-02-27T03:54:23.995Z,99.99
2018-02-27T03:55:23.970Z,99.99
2018-02-27T03:56:23.947Z,99.99
2018-02-27T03:57:23.921Z,99.99
2018-02-27T03:58:24.149Z,99.99
2018-02-27T03:59:24.128Z,99.99
2018-02-27T04:00:23.842Z,99.99
2018-02-27T04:01:24.074Z,99.99
2018-02-27T04:02:24.047Z,99.99
2018-02-27T04:03:24.017Z,99.99
2018-02-27T04:04:23.992Z,99.99
2018-02-27T04:05:23.967Z,99.99
2018-02-27T04:06:23.938Z,99.99
2018-02-27T04:07:23.914Z,99.99
2018-02-27T04:08:23.885Z,99.99
2018-02-27T04:09:23.864Z,99.99
2018-02-27T04:10:23.830Z,99.99
2018-02-27T04:11:23.808Z,99.99
2018-02-27T04:12:23.778Z,99.99
2018-02-27T04:13:23.755Z,99.99
2018-02-27T04:14:23.726Z,99.99
2018-02-27T04:15:23.706Z,99.99
2018-02-27T04:16:23.674Z,99.99
2018-02-27T04:17:23.649Z,99.99
2018-02-27T04:18:23.364Z,99.99
2018-02-27T04:19:23.596Z,99.99
2018-02-27T04:20:23.309Z,99.99
2018-02-27T04:21:23.538Z,99.99
2018-02-27T04:22:23.514Z,99.99
2018-02-27T04:23:23.228Z,99.99
2018-02-27T04:24:23.464Z,99.99
2018-02-27T04:25:23.445Z,99.99
2018-02-27T04:26:23.151Z,99.99
2018-02-27T04:27:23.386Z,99.99
2018-02-27T04:28:23.359Z,99.99
2018-02-27T04:29:23.329Z,99.99
2018-02-27T04:30:23.303Z,99.99
2018-02-27T04:31:23.019Z,99.99
2018-02-27T04:32:23.247Z,99.99
2018-02-27T04:33:22.966Z,99.99
2018-02-27T04:34:23.195Z,99.99
2018-02-27T04:35:23.168Z,99.99
2018-02-27T04:36:23.144Z,99.99
2018-02-27T04:37:23.120Z,99.99
2018-02-27T04:38:22.831Z,99.99
2018-02-27T04:39:23.063Z,99.99
2018-02-27T04:40:23.044Z,99.99
2018-02-27T04:41:23.007Z,99.99
2018-02-27T04:42:22.723Z,99.99
2018-02-27T04:43:22.958Z,99.99
2018-02-27T04:44:22.961Z,99.99
2018-02-27T04:45:22.904Z,99.99
2018-02-27T04:46:22.878Z,99.99
2018-02-27T04:47:22.849Z,99.99
2018-02-27T04:48:22.562Z,99.99
2018-02-27T04:49:22.797Z,99.99
2018-02-27T04:50:22.511Z,99.99
2018-02-27T04:51:22.744Z,99.99
2018-02-27T04:52:22.712Z,99.99
2018-02-27T04:53:22.433Z,99.99
2018-02-27T04:54:22.662Z,99.99
2018-02-27T04:55:22.638Z,99.99
2018-02-27T04:56:22.608Z,99.99
2018-02-27T04:57:22.582Z,99.99
2018-02-27T04:58:22.297Z,99.99
2018-02-27T04:59:22.526Z,99.99
2018-02-27T05:00:22.247Z,99.99
2018-02-27T05:01:22.217Z,99.99
2018-02-27T05:02:22.191Z,99.99
2018-02-27T05:03:22.421Z,99.99
2018-02-27T05:04:22.395Z,99.99
2018-02-27T05:05:22.369Z,99.99
2018-02-27T05:06:22.083Z,99.99
2018-02-27T05:07:22.054Z,99.99
2018-02-27T05:08:22.293Z,99.99
2018-02-27T05:09:22.262Z,99.99
2018-02-27T05:10:21.976Z,99.99
2018-02-27T05:11:22.207Z,99.99
2018-02-27T05:12:22.182Z,99.99
2018-02-27T05:13:22.154Z,99.99
2018-02-27T05:14:22.124Z,99.99
2018-02-27T05:15:22.102Z,99.99
2018-02-27T05:16:22.165Z,99.99
2018-02-27T05:17:22.046Z,99.99
2018-02-27T05:18:21.761Z,99.99
2018-02-27T05:19:21.991Z,99.99
2018-02-27T05:20:21.710Z,99.99
2018-02-27T05:21:21.939Z,99.99
2018-02-27T05:22:21.914Z,99.99
2018-02-27T05:23:21.885Z,99.99
2018-02-27T05:24:21.601Z,99.99
2018-02-27T05:25:21.833Z,99.99
2018-02-27T05:26:21.803Z,99.99
2018-02-27T05:27:21.778Z,99.99
2018-02-27T05:28:21.750Z,99.99
2018-02-27T05:29:21.724Z,99.99
2018-02-27T05:30:21.700Z,99.99
2018-02-27T05:31:21.672Z,99.99
2018-02-27T05:32:21.652Z,99.99
2018-02-27T05:33:21.622Z,99.99
2018-02-27T05:34:21.334Z,99.99
2018-02-27T05:35:21.565Z,99.99
2018-02-27T05:36:21.535Z,99.99
2018-02-27T05:37:21.516Z,99.99
2018-02-27T05:38:21.227Z,99.99
2018-02-27T05:39:21.456Z,99.99
2018-02-27T05:40:21.170Z,99.99
2018-02-27T05:41:21.405Z,99.99
2018-02-27T05:42:21.378Z,99.99
2018-02-27T05:43:21.356Z,99.99
2018-02-27T05:44:21.324Z,99.99
2018-02-27T05:45:21.294Z,99.99
2018-02-27T05:46:21.267Z,99.99
2018-02-27T05:47:21.241Z,99.99
2018-02-27T05:48:21.218Z,99.99
2018-02-27T05:49:21.238Z,99.99
2018-02-27T05:50:21.166Z,99.99
2018-02-27T05:51:20.878Z,99.99
2018-02-27T05:52:21.107Z,99.99
2018-02-27T05:53:20.825Z,99.99
2018-02-27T05:54:21.057Z,99.99
2018-02-27T05:55:21.028Z,99.99
2018-02-27T05:56:21.001Z,99.99
2018-02-27T05:57:20.719Z,99.99
2018-02-27T05:58:20.951Z,99.99
2018-02-27T05:59:20.919Z,99.99
2018-02-27T06:00:20.637Z,99.99
2018-02-27T06:01:20.871Z,99.99
2018-02-27T06:02:20.847Z,99.99
2018-02-27T06:03:20.812Z,99.99
2018-02-27T06:04:20.789Z,99.99
2018-02-27T06:05:20.773Z,99.99
2018-02-27T06:06:20.477Z,99.99
2018-02-27T06:07:20.447Z,99.99
2018-02-27T06:08:20.420Z,99.99
2018-02-27T06:09:20.394Z,99.99
2018-02-27T06:10:20.371Z,99.99
2018-02-27T06:11:20.601Z,99.99
2018-02-27T06:12:20.315Z,99.99
2018-02-27T06:13:20.549Z,99.99
2018-02-27T06:14:20.522Z,99.99
2018-02-27T06:15:20.490Z,99.99
2018-02-27T06:16:20.205Z,99.99
2018-02-27T06:17:20.435Z,99.99
2018-02-27T06:18:20.410Z,99.99
2018-02-27T06:19:20.384Z,99.99
2018-02-27T06:20:20.359Z,99.99
2018-02-27T06:21:20.326Z,99.99
2018-02-27T06:22:20.305Z,99.99
2018-02-27T06:23:20.284Z,99.99
2018-02-27T06:24:19.991Z,99.99
2018-02-27T06:25:20.223Z,99.99
2018-02-27T06:26:20.198Z,99.99
2018-02-27T06:27:20.171Z,99.99
2018-02-27T06:28:20.151Z,99.99
2018-02-27T06:29:19.858Z,99.99
2018-02-27T06:30:20.100Z,99.99
2018-02-27T06:31:19.826Z,99.99
2018-02-27T06:32:20.037Z,99.99
2018-02-27T06:33:20.010Z,99.99
2018-02-27T06:34:19.979Z,99.99
2018-02-27T06:35:19.693Z,99.99
2018-02-27T06:36:19.929Z,99.99
2018-02-27T06:37:19.929Z,99.99
2018-02-27T06:38:19.872Z,99.99
2018-02-27T06:39:19.847Z,99.99
2018-02-27T06:40:19.818Z,99.99
2018-02-27T06:41:19.793Z,99.99
2018-02-27T06:42:19.766Z,99.99
2018-02-27T06:43:19.741Z,99.99
2018-02-27T06:44:19.710Z,99.99
2018-02-27T06:45:19.428Z,99.99
2018-02-27T06:46:19.660Z,99.99
2018-02-27T06:47:19.701Z,99.99
2018-02-27T06:48:19.608Z,99.99
2018-02-27T06:49:19.319Z,99.99
2018-02-27T06:50:19.291Z,99.99
2018-02-27T06:51:19.265Z,99.99
2018-02-27T06:52:19.497Z,99.99
2018-02-27T06:53:19.475Z,99.99
2018-02-27T06:54:19.445Z,99.99
2018-02-27T06:55:19.161Z,99.99
2018-02-27T06:56:19.434Z,99.99
2018-02-27T06:57:19.108Z,99.99
2018-02-27T06:58:19.333Z,99.99
2018-02-27T06:59:19.311Z,99.99
2018-02-27T07:00:19.317Z,99.99
2018-02-27T07:01:19.257Z,99.99
2018-02-27T07:02:19.229Z,99.99
2018-02-27T07:03:19.214Z,99.99
2018-02-27T07:04:19.179Z,99.99
2018-02-27T07:05:18.893Z,99.99
2018-02-27T07:06:19.233Z,99.99
2018-02-27T07:07:19.102Z,99.99
2018-02-27T07:08:19.071Z,99.99
2018-02-27T07:09:19.043Z,99.99
2018-02-27T07:10:19.114Z,99.99
2018-02-27T07:11:18.991Z,99.99
2018-02-27T07:12:18.962Z,99.99
2018-02-27T07:13:18.939Z,99.99
2018-02-27T07:14:18.913Z,99.99
2018-02-27T07:15:18.627Z,99.99
2018-02-27T07:16:18.856Z,99.99
2018-02-27T07:17:18.575Z,99.99
2018-02-27T07:18:18.809Z,99.99
2018-02-27T07:19:18.779Z,99.99
2018-02-27T07:20:18.754Z,99.99
2018-02-27T07:21:18.726Z,99.99
2018-02-27T07:22:18.700Z,99.99
2018-02-27T07:23:18.412Z,99.99
2018-02-27T07:24:18.390Z,99.99
2018-02-27T07:25:18.621Z,99.99
2018-02-27T07:26:18.591Z,99.99
2018-02-27T07:27:18.569Z,99.99
2018-02-27T07:28:18.539Z,99.99
2018-02-27T07:29:18.517Z,99.99
2018-02-27T07:30:18.486Z,99.99
2018-02-27T07:31:18.461Z,99.99
2018-02-27T07:32:18.438Z,99.99
2018-02-27T07:33:18.407Z,99.99
2018-02-27T07:34:18.381Z,99.99
2018-02-27T07:35:18.427Z,99.99
2018-02-27T07:36:18.329Z,99.99
2018-02-27T07:37:18.314Z,99.99
2018-02-27T07:38:18.279Z,99.99
2018-02-27T07:39:18.252Z,99.99
2018-02-27T07:40:18.227Z,99.99
2018-02-27T07:41:17.941Z,99.99
2018-02-27T07:42:18.171Z,99.99
2018-02-27T07:43:18.147Z,99.99
2018-02-27T07:44:18.121Z,99.99
2018-02-27T07:45:18.092Z,99.99
2018-02-27T07:46:18.069Z,99.99
2018-02-27T07:47:17.817Z,99.99
2018-02-27T07:48:18.015Z,99.99
2018-02-27T07:49:17.989Z,99.99
2018-02-27T07:50:17.969Z,99.99
2018-02-27T07:51:17.942Z,99.99
2018-02-27T07:52:17.954Z,99.99
2018-02-27T07:53:17.630Z,99.99
2018-02-27T07:54:17.862Z,99.99
2018-02-27T07:55:17.835Z,99.99
2018-02-27T07:56:17.809Z,99.99
2018-02-27T07:57:17.783Z,99.99
2018-02-27T07:58:17.757Z,99.99
2018-02-27T07:59:17.732Z,99.99
2018-02-27T08:00:17.447Z,99.99
2018-02-27T08:01:17.679Z,99.99
2018-02-27T08:02:17.651Z,99.99
2018-02-27T08:03:17.626Z,99.99
2018-02-27T08:04:17.652Z,99.99
2018-02-27T08:05:17.321Z,99.99
2018-02-27T08:06:17.550Z,99.99
2018-02-27T08:07:17.528Z,99.99
2018-02-27T08:08:17.499Z,99.99
2018-02-27T08:09:17.475Z,99.99
2018-02-27T08:10:17.187Z,99.99
2018-02-27T08:11:17.423Z,99.99
2018-02-27T08:12:17.394Z,99.99
2018-02-27T08:13:17.111Z,99.99
2018-02-27T08:14:17.083Z,99.99
2018-02-27T08:15:17.318Z,99.99
2018-02-27T08:16:17.357Z,99.99
2018-02-27T08:17:17.267Z,99.99
2018-02-27T08:18:17.240Z,99.99
2018-02-27T08:19:17.215Z,99.99
2018-02-27T08:20:16.931Z,99.99
2018-02-27T08:21:17.167Z,99.99
2018-02-27T08:22:17.138Z,99.99
2018-02-27T08:23:17.111Z,99.99
2018-02-27T08:24:17.084Z,99.99
2018-02-27T08:25:17.120Z,99.99
2018-02-27T08:26:16.779Z,99.99
2018-02-27T08:27:17.014Z,99.99
2018-02-27T08:28:16.725Z,99.99
2018-02-27T08:29:16.702Z,99.99
2018-02-27T08:30:16.677Z,99.99
2018-02-27T08:31:16.909Z,99.99
2018-02-27T08:32:16.882Z,99.99
2018-02-27T08:33:16.601Z,99.99
2018-02-27T08:34:16.831Z,99.99
2018-02-27T08:35:16.810Z,99.99
2018-02-27T08:36:16.793Z,99.99
2018-02-27T08:37:16.760Z,99.99
2018-02-27T08:38:16.737Z,99.99
2018-02-27T08:39:16.716Z,99.99
2018-02-27T08:40:16.682Z,99.99
2018-02-27T08:41:16.657Z,99.99
2018-02-27T08:42:16.636Z,99.99
2018-02-27T08:43:16.607Z,99.99
2018-02-27T08:44:16.378Z,99.99
2018-02-27T08:45:16.559Z,99.99
2018-02-27T08:46:16.536Z,99.99
2018-02-27T08:47:16.508Z,99.99
2018-02-27T08:48:16.487Z,99.99
2018-02-27T08:49:16.460Z,99.99
2018-02-27T08:50:16.435Z,99.99
2018-02-27T08:51:16.413Z,99.99
2018-02-27T08:52:16.385Z,99.99
2018-02-27T08:53:16.357Z,99.99
2018-02-27T08:54:16.076Z,99.99
2018-02-27T08:55:16.305Z,99.99
2018-02-27T08:56:16.348Z,99.99
2018-02-27T08:57:15.998Z,99.99
2018-02-27T08:58:16.230Z,99.99
2018-02-27T08:59:16.210Z,99.99
2018-02-27T09:00:15.928Z,99.99
2018-02-27T09:01:15.901Z,99.99
2018-02-27T09:02:15.876Z,99.99
2018-02-27T09:03:16.112Z,99.99
2018-02-27T09:04:16.098Z,99.99
2018-02-27T09:05:16.060Z,99.99
2018-02-27T09:06:16.037Z,99.99
2018-02-27T09:07:16.010Z,99.99
2018-02-27T09:08:15.982Z,99.99
2018-02-27T09:09:15.702Z,99.99
2018-02-27T09:10:15.993Z,99.99
2018-02-27T09:11:15.911Z,99.99
2018-02-27T09:12:15.627Z,99.99
2018-02-27T09:13:15.865Z,99.99
2018-02-27T09:14:15.833Z,99.99
2018-02-27T09:15:15.553Z,99.99
2018-02-27T09:16:15.528Z,99.99
2018-02-27T09:17:15.761Z,99.99
2018-02-27T09:18:15.478Z,99.99
2018-02-27T09:19:15.845Z,99.99
2018-02-27T09:20:15.474Z,99.99
2018-02-27T09:21:15.663Z,99.99
2018-02-27T09:22:15.637Z,99.99
2018-02-27T09:23:15.353Z,99.99
2018-02-27T09:24:15.331Z,99.99
2018-02-27T09:25:15.569Z,99.99
2018-02-27T09:26:15.560Z,99.99
2018-02-27T09:27:15.516Z,99.99
2018-02-27T09:28:15.502Z,99.99
2018-02-27T09:29:15.208Z,99.99
2018-02-27T09:30:15.486Z,99.99
2018-02-27T09:31:15.179Z,99.99
2018-02-27T09:32:15.393Z,99.99
2018-02-27T09:33:15.372Z,99.99
2018-02-27T09:34:15.086Z,99.99
2018-02-27T09:35:15.322Z,99.99
2018-02-27T09:36:15.303Z,99.99
2018-02-27T09:37:15.273Z,99.99
2018-02-27T09:38:14.997Z,99.99
2018-02-27T09:39:15.234Z,99.99
2018-02-27T09:40:15.198Z,99.99
2018-02-27T09:41:15.205Z,99.99
2018-02-27T09:42:15.151Z,99.99
2018-02-27T09:43:15.129Z,99.99
2018-02-27T09:44:15.113Z,99.99
2018-02-27T09:45:14.821Z,99.99
2018-02-27T09:46:15.060Z,99.99
2018-02-27T09:47:15.042Z,99.99
2018-02-27T09:48:15.002Z,99.99
2018-02-27T09:49:14.978Z,99.99
2018-02-27T09:50:14.959Z,99.99
2018-02-27T09:51:14.674Z,99.99
2018-02-27T09:52:14.651Z,99.99
2018-02-27T09:53:14.626Z,99.99
2018-02-27T09:54:14.860Z,99.99
2018-02-27T09:55:14.837Z,99.99
2018-02-27T09:56:14.809Z,99.99
2018-02-27T09:57:14.788Z,99.99
2018-02-27T09:58:14.766Z,99.99
2018-02-27T09:59:14.743Z,99.99
2018-02-27T10:00:14.712Z,99.99
2018-02-27T10:01:14.693Z,99.99
2018-02-27T10:02:14.671Z,99.99
2018-02-27T10:03:14.648Z,99.99
2018-02-27T10:04:14.362Z,99.99
2018-02-27T10:05:14.595Z,99.99
2018-02-27T10:06:14.627Z,99.82
2018-02-27T10:07:14.551Z,99.82
2018-02-27T10:08:14.265Z,99.54
2018-02-27T10:09:14.497Z,99.63
2018-02-27T10:10:14.474Z,99.91
2018-02-27T10:11:14.193Z,99.99
2018-02-27T10:12:14.424Z,99.99
2018-02-27T10:13:14.145Z,99.99
2018-02-27T10:14:14.121Z,99.54
2018-02-27T10:15:14.095Z,99.91
2018-02-27T10:16:14.331Z,99.54
2018-02-27T10:17:14.372Z,99.35
2018-02-27T10:18:14.284Z,99.73
2018-02-27T10:19:14.002Z,99.63
2018-02-27T10:20:13.976Z,99.99
2018-02-27T10:21:14.209Z,99.99
2018-02-27T10:22:14.232Z,99.99
2018-02-27T10:23:14.165Z,99.99
2018-02-27T10:24:14.140Z,99.99
2018-02-27T10:25:14.115Z,99.99
2018-02-27T10:26:13.830Z,99.99
2018-02-27T10:27:14.064Z,99.99
2018-02-27T10:28:13.784Z,99.99
2018-02-27T10:29:14.049Z,99.82
2018-02-27T10:30:13.738Z,98.32
2018-02-27T10:31:13.971Z,97.75
2018-02-27T10:32:13.943Z,97.94
2018-02-27T10:33:13.920Z,97.56
2018-02-27T10:34:13.899Z,97.85
2018-02-27T10:35:13.880Z,98.03
2018-02-27T10:36:13.850Z,97.85
2018-02-27T10:37:13.824Z,98.03
2018-02-27T10:38:13.550Z,98.6
2018-02-27T10:39:13.775Z,99.54
2018-02-27T10:40:13.755Z,99.63
2018-02-27T10:41:13.728Z,99.99
2018-02-27T10:42:13.447Z,99.99
2018-02-27T10:43:13.422Z,99.99
2018-02-27T10:44:13.666Z,99.99
2018-02-27T10:45:13.636Z,99.99
2018-02-27T10:46:13.612Z,99.73
2018-02-27T10:47:13.583Z,99.35
2018-02-27T10:48:13.305Z,99.73
2018-02-27T10:49:13.549Z,99.63
2018-02-27T10:50:13.514Z,99.99
2018-02-27T10:51:13.490Z,99.63
2018-02-27T10:52:13.473Z,98.41
2018-02-27T10:53:13.443Z,98.13
2018-02-27T10:54:13.418Z,98.5
2018-02-27T10:55:13.138Z,99.16
2018-02-27T10:56:13.375Z,99.54
2018-02-27T10:57:13.426Z,99.99
2018-02-27T10:58:13.327Z,99.73
2018-02-27T10:59:13.302Z,99.35
2018-02-27T11:00:13.282Z,98.22
2018-02-27T11:01:13.252Z,97.75
2018-02-27T11:02:13.235Z,97.09
2018-02-27T11:03:13.206Z,97.19
2018-02-27T11:04:12.922Z,98.13
2018-02-27T11:05:13.159Z,97
2018-02-27T11:06:12.875Z,96.34
2018-02-27T11:07:12.852Z,96.62
2018-02-27T11:08:13.088Z,96.34
2018-02-27T11:09:13.061Z,96.06
2018-02-27T11:10:13.044Z,96.25
2018-02-27T11:11:13.015Z,96.06
2018-02-27T11:12:12.996Z,95.49
2018-02-27T11:13:12.968Z,94.74
2018-02-27T11:14:12.943Z,94.08
2018-02-27T11:15:12.665Z,94.27
2018-02-27T11:16:12.901Z,93.79
2018-02-27T11:17:12.881Z,94.36
2018-02-27T11:18:12.848Z,94.93
2018-02-27T11:19:12.827Z,95.11
2018-02-27T11:20:12.810Z,95.96
2018-02-27T11:21:12.778Z,96.25
2018-02-27T11:22:12.756Z,96.72
2018-02-27T11:23:12.735Z,95.87
2018-02-27T11:24:12.705Z,94.74
2018-02-27T11:25:12.688Z,93.61
2018-02-27T11:26:12.659Z,92.57
2018-02-27T11:27:12.635Z,92.38
2018-02-27T11:28:12.613Z,92.57
2018-02-27T11:29:12.594Z,93.51
2018-02-27T11:30:12.309Z,93.79
2018-02-27T11:31:12.555Z,93.89
2018-02-27T11:32:12.267Z,93.13
2018-02-27T11:33:12.492Z,92.66
2018-02-27T11:34:12.473Z,92.71
2018-02-27T11:35:12.450Z,92.33
2018-02-27T11:36:12.424Z,91.77
2018-02-27T11:37:12.401Z,91.2
2018-02-27T11:38:12.377Z,90.92
2018-02-27T11:39:12.351Z,90.55
2018-02-27T11:40:12.334Z,90.08
2018-02-27T11:41:12.047Z,89.79
2018-02-27T11:42:12.283Z,88.47
2018-02-27T11:43:12.265Z,88.28
2018-02-27T11:44:12.236Z,88.38
2018-02-27T11:45:12.211Z,89.04
2018-02-27T11:46:12.184Z,89.7
2018-02-27T11:47:12.163Z,88
2018-02-27T11:48:12.159Z,87.81
2018-02-27T11:49:11.860Z,88
2018-02-27T11:50:12.096Z,89.04
2018-02-27T11:51:12.072Z,88.28
2018-02-27T11:52:12.047Z,87.53
2018-02-27T11:53:12.025Z,87.25
2018-02-27T11:54:12.005Z,87.62
2018-02-27T11:55:11.979Z,86.21
2018-02-27T11:56:11.956Z,85.74
2018-02-27T11:57:11.930Z,84.42
2018-02-27T11:58:11.912Z,83.67
2018-02-27T11:59:11.884Z,83.67
2018-02-27T12:00:11.858Z,82.35
2018-02-27T12:01:11.578Z,82.35
2018-02-27T12:02:11.812Z,82.25
2018-02-27T12:03:11.793Z,82.07
2018-02-27T12:04:11.507Z,82.25
2018-02-27T12:05:11.485Z,82.73
2018-02-27T12:06:11.723Z,81.41
2018-02-27T12:07:11.701Z,80.18
2018-02-27T12:08:11.710Z,79.24
2018-02-27T12:09:11.393Z,79.61
2018-02-27T12:10:11.372Z,80.27
2018-02-27T12:11:11.609Z,80.84
2018-02-27T12:12:11.581Z,81.12
2018-02-27T12:13:11.301Z,80.93
2018-02-27T12:14:11.536Z,81.22
2018-02-27T12:15:11.254Z,80.18
2018-02-27T12:16:11.490Z,79.43
2018-02-27T12:17:11.467Z,79.14
2018-02-27T12:18:11.446Z,79.33
2018-02-27T12:19:11.420Z,78.39
2018-02-27T12:20:11.398Z,76.98
2018-02-27T12:21:11.378Z,76.7
2018-02-27T12:22:11.356Z,76.7
2018-02-27T12:23:11.327Z,76.89
2018-02-27T12:24:11.309Z,77.64
2018-02-27T12:25:11.287Z,76.7
2018-02-27T12:26:11.258Z,76.89
2018-02-27T12:27:10.979Z,78.86
2018-02-27T12:28:11.215Z,78.49
2018-02-27T12:29:11.188Z,77.36
2018-02-27T12:30:11.251Z,77.64
2018-02-27T12:31:10.888Z,76.41
2018-02-27T12:32:11.125Z,75.66
2018-02-27T12:33:11.102Z,74.9
2018-02-27T12:34:11.076Z,73.77
2018-02-27T12:35:11.051Z,73.3
2018-02-27T12:36:11.033Z,73.11
2018-02-27T12:37:11.005Z,72.08
2018-02-27T12:38:10.985Z,71.23
2018-02-27T12:39:10.961Z,71.14
2018-02-27T12:40:10.941Z,70.38
2018-02-27T12:41:10.917Z,70.19
2018-02-27T12:42:10.634Z,69.25
2018-02-27T12:43:10.872Z,68.5
2018-02-27T12:44:10.843Z,68.59
2018-02-27T12:45:10.824Z,69.16
2018-02-27T12:46:10.801Z,68.31
2018-02-27T12:47:10.826Z,68.02
2018-02-27T12:48:10.757Z,67.93
2018-02-27T12:49:10.473Z,67.55
2018-02-27T12:50:10.718Z,66.61
2018-02-27T12:51:10.688Z,66.52
2018-02-27T12:52:10.665Z,66.99
2018-02-27T12:53:10.640Z,66.71